createdAt,value
2022-09-04T00:01:18.992Z,19.70
2022-09-04T00:03:55.891Z,19.70
2022-09-04T00:06:32.761Z,19.70
2022-09-04T00:09:12.983Z,19.70
2022-09-04T00:12:05.825Z,19.60
2022-09-04T00:14:52.663Z,19.60
2022-09-04T00:17:41.497Z,19.50
2022-09-04T00:20:32.843Z,19.50
2022-09-04T00:23:34.130Z,19.60
2022-09-04T00:26:06.547Z,19.50
2022-09-04T00:28:40.344Z,19.50
2022-09-04T00:32:01.697Z,19.40
2022-09-04T00:35:07.314Z,19.40
2022-09-04T00:37:39.039Z,19.40
2022-09-04T00:40:32.446Z,19.30
2022-09-04T00:43:43.273Z,19.30
2022-09-04T00:46:40.428Z,19.20
2022-09-04T00:49:16.574Z,19.20
2022-09-04T00:52:23.657Z,19.20
2022-09-04T00:55:10.391Z,19.10
2022-09-04T00:57:46.067Z,19.10
2022-09-04T01:00:17.319Z,19.10
2022-09-04T01:03:19.284Z,19.00
2022-09-04T01:06:01.317Z,19.00
2022-09-04T01:08:56.472Z,19.00
2022-09-04T01:11:38.284Z,18.90
2022-09-04T01:14:31.188Z,18.90
2022-09-04T01:17:12.343Z,18.90
2022-09-04T01:19:56.324Z,18.80
2022-09-04T01:22:52.461Z,18.80
2022-09-04T01:25:43.032Z,18.70
2022-09-04T01:28:11.550Z,18.80
2022-09-04T01:30:47.336Z,18.80
2022-09-04T01:33:40.323Z,18.70
2022-09-04T01:36:20.095Z,18.70
2022-09-04T01:38:53.656Z,18.60
2022-09-04T01:41:39.070Z,18.60
2022-09-04T01:44:11.012Z,18.60
2022-09-04T01:47:05.439Z,18.50
2022-09-04T01:49:44.836Z,18.50
2022-09-04T01:52:38.753Z,18.50
2022-09-04T01:55:44.723Z,18.50
2022-09-04T01:58:41.636Z,18.40
2022-09-04T02:01:38.392Z,18.40
2022-09-04T02:04:23.452Z,18.40
2022-09-04T02:06:59.068Z,18.40
2022-09-04T02:09:36.231Z,18.40
2022-09-04T02:12:30.192Z,18.30
2022-09-04T02:15:18.385Z,18.30
2022-09-04T02:18:12.355Z,18.30
2022-09-04T02:20:46.976Z,18.30
2022-09-04T02:23:47.612Z,18.30
2022-09-04T02:26:30.129Z,18.20
2022-09-04T02:29:08.563Z,18.20
2022-09-04T02:31:54.067Z,18.10
2022-09-04T02:34:29.176Z,18.10
2022-09-04T02:37:32.195Z,18.10
2022-09-04T02:40:11.866Z,18.10
2022-09-04T02:43:20.968Z,18.00
2022-09-04T02:45:53.746Z,18.00
2022-09-04T02:48:28.307Z,18.00
2022-09-04T02:51:14.010Z,17.90
2022-09-04T02:54:02.796Z,17.90
2022-09-04T02:56:52.185Z,17.90
2022-09-04T02:59:18.795Z,17.80
2022-09-04T03:01:59.165Z,17.80
2022-09-04T03:04:43.754Z,17.80
2022-09-04T03:07:28.191Z,17.70
2022-09-04T03:10:06.920Z,17.70
2022-09-04T03:12:57.756Z,17.60
2022-09-04T03:15:39.667Z,17.60
2022-09-04T03:18:33.171Z,17.60
2022-09-04T03:25:13.074Z,17.60
2022-09-04T03:43:32.664Z,17.40
2022-09-04T03:46:29.905Z,17.30
2022-09-04T03:49:06.785Z,17.30
2022-09-04T03:52:03.512Z,17.30
2022-09-04T03:54:30.249Z,17.30
2022-09-04T03:57:14.838Z,17.30
2022-09-04T04:00:00.495Z,17.30
2022-09-04T04:02:50.699Z,17.30
2022-09-04T04:05:39.774Z,17.30
2022-09-04T04:08:33.554Z,17.30
2022-09-04T04:11:20.781Z,17.30
2022-09-04T04:14:25.434Z,17.30
2022-09-04T04:17:20.615Z,17.30
2022-09-04T04:20:03.267Z,17.30
2022-09-04T04:41:14.953Z,17.20
2022-09-04T04:43:53.349Z,17.20
2022-09-04T04:46:39.457Z,17.20
2022-09-04T04:49:26.172Z,17.20
2022-09-04T04:52:23.437Z,17.10
2022-09-04T04:55:21.267Z,17.10
2022-09-04T04:58:18.676Z,17.10
2022-09-04T05:00:53.452Z,17.10
2022-09-04T05:07:23.277Z,17.10
2022-09-04T05:10:42.762Z,17.10
2022-09-04T05:54:27.148Z,17.00
2022-09-04T05:57:43.110Z,17.00
2022-09-04T06:00:19.610Z,17.00
2022-09-04T06:03:14.904Z,17.10
2022-09-04T06:05:41.555Z,17.10
2022-09-04T06:08:32.812Z,17.10
2022-09-04T06:11:18.026Z,17.10
2022-09-04T06:14:03.325Z,17.10
2022-09-04T06:16:59.233Z,17.20
2022-09-04T06:19:25.825Z,17.20
2022-09-04T06:22:01.339Z,17.30
2022-09-04T06:25:14.414Z,17.30
2022-09-04T06:27:52.624Z,17.40
2022-09-04T06:30:19.633Z,17.40
2022-09-04T06:33:19.010Z,17.50
2022-09-04T06:36:12.448Z,17.50
2022-09-04T06:39:04.439Z,17.50
2022-09-04T06:41:46.040Z,17.60
2022-09-04T06:44:30.785Z,17.60
2022-09-04T06:47:16.161Z,17.70
2022-09-04T06:50:01.527Z,17.70
2022-09-04T06:53:03.986Z,17.80
2022-09-04T06:55:44.439Z,17.80
2022-09-04T06:58:44.692Z,17.80
2022-09-04T07:01:46.621Z,17.80
2022-09-04T07:04:36.086Z,17.90
2022-09-04T07:07:44.361Z,17.90
2022-09-04T07:10:24.045Z,18.00
2022-09-04T07:13:12.683Z,18.00
2022-09-04T07:16:03.683Z,18.10
2022-09-04T07:18:54.324Z,18.20
2022-09-04T07:21:54.570Z,18.20
2022-09-04T07:24:49.921Z,18.30
2022-09-04T07:27:44.980Z,18.40
2022-09-04T07:30:17.213Z,18.50
2022-09-04T07:33:24.472Z,18.50
2022-09-04T07:36:00.033Z,18.60
2022-09-04T07:39:04.850Z,18.70
2022-09-04T07:41:42.503Z,18.90
2022-09-04T07:44:24.400Z,18.90
2022-09-04T07:47:13.421Z,19.10
2022-09-04T07:50:07.159Z,19.20
2022-09-04T07:56:33.820Z,19.40
2022-09-04T08:02:57.736Z,19.70
2022-09-04T08:05:47.799Z,19.90
2022-09-04T08:08:53.949Z,20.00
2022-09-04T08:12:33.787Z,20.20
2022-09-04T08:19:15.662Z,20.50
2022-09-04T08:22:28.140Z,20.70
2022-09-04T08:29:35.073Z,21.00
2022-09-04T08:32:53.516Z,21.10
2022-09-04T08:35:54.291Z,21.30
2022-09-04T08:38:32.269Z,21.50
2022-09-04T08:41:21.832Z,21.60
2022-09-04T08:44:30.604Z,21.80
2022-09-04T08:46:58.233Z,21.90
2022-09-04T08:49:32.525Z,22.00
2022-09-04T08:55:49.619Z,22.40
2022-09-04T08:58:26.746Z,22.50
2022-09-04T09:01:33.707Z,22.70
2022-09-04T09:05:19.497Z,22.80
2022-09-04T09:08:18.679Z,23.00
2022-09-04T09:11:56.053Z,23.10
2022-09-04T09:48:39.104Z,26.70
2022-09-04T09:52:22.448Z,27.10
2022-09-04T09:55:40.114Z,27.40
2022-09-04T09:58:57.194Z,28.00
2022-09-04T10:31:45.946Z,28.40
2022-09-04T10:34:52.074Z,28.20
2022-09-04T10:41:48.636Z,28.10
2022-09-04T10:44:56.763Z,28.00
2022-09-04T10:51:16.037Z,28.00
2022-09-04T10:57:37.852Z,28.00
2022-09-04T11:04:09.017Z,28.00
2022-09-04T11:07:32.399Z,28.00
2022-09-04T11:10:56.315Z,28.00
2022-09-04T11:14:02.318Z,27.90
2022-09-04T11:42:37.338Z,28.20
2022-09-04T11:45:29.423Z,28.20
2022-09-04T11:51:54.489Z,28.20
2022-09-04T11:58:32.317Z,27.90
2022-09-04T12:01:43.480Z,27.90
2022-09-04T12:04:54.044Z,28.00
2022-09-04T12:08:22.296Z,28.00
2022-09-04T12:14:36.464Z,27.90
2022-09-04T12:17:31.233Z,28.00
2022-09-04T12:21:00.565Z,28.10
2022-09-04T12:23:58.862Z,28.10
2022-09-04T12:26:59.856Z,28.10
2022-09-04T12:29:38.865Z,28.10
2022-09-04T12:32:25.403Z,28.00
2022-09-04T12:35:12.971Z,28.10
2022-09-04T12:38:18.556Z,28.20
2022-09-04T12:41:09.724Z,28.10
2022-09-04T12:44:15.956Z,28.10
2022-09-04T12:47:09.786Z,28.10
2022-09-04T12:49:52.220Z,28.00
2022-09-04T12:52:53.765Z,28.10
2022-09-04T12:55:38.294Z,28.10
2022-09-04T12:58:15.589Z,28.20
2022-09-04T13:00:56.732Z,28.30
2022-09-04T13:03:38.128Z,28.40
2022-09-04T13:06:13.227Z,28.50
2022-09-04T13:08:59.050Z,28.70
2022-09-04T13:11:34.701Z,28.90
2022-09-04T13:14:10.603Z,29.00
2022-09-04T13:16:55.066Z,29.10
2022-09-04T13:19:47.321Z,29.20
2022-09-04T13:22:50.819Z,29.30
2022-09-04T13:25:59.554Z,29.30
2022-09-04T13:28:51.103Z,29.30
2022-09-04T13:31:33.305Z,29.30
2022-09-04T13:34:24.097Z,29.50
2022-09-04T13:37:48.089Z,29.60
2022-09-04T13:40:14.694Z,29.70
2022-09-04T13:43:11.087Z,29.80
2022-09-04T13:45:49.006Z,29.80
2022-09-04T13:48:42.095Z,29.80
2022-09-04T13:51:13.860Z,29.90
2022-09-04T13:54:26.662Z,29.90
2022-09-04T13:57:06.004Z,29.90
2022-09-04T13:59:33.885Z,30.00
2022-09-04T14:02:08.360Z,30.00
2022-09-04T14:04:40.434Z,30.00
2022-09-04T14:07:33.645Z,30.10
2022-09-04T14:10:04.687Z,30.00
2022-09-04T14:13:09.910Z,30.00
2022-09-04T14:15:59.890Z,29.90
2022-09-04T14:18:47.909Z,29.80
2022-09-04T14:24:51.840Z,29.70
2022-09-04T14:27:46.784Z,29.50
2022-09-04T14:30:17.007Z,29.50
2022-09-04T14:30:29.409Z,29.70
2022-09-04T14:32:58.035Z,29.50
2022-09-04T14:35:36.423Z,29.60
2022-09-04T14:38:26.219Z,29.60
2022-09-04T14:41:20.463Z,29.60
2022-09-04T14:44:06.911Z,29.60
2022-09-04T14:46:43.410Z,29.70
2022-09-04T14:49:20.118Z,29.60
2022-09-04T14:51:49.314Z,29.60
2022-09-04T14:54:29.303Z,29.60
2022-09-04T14:57:14.224Z,29.60
2022-09-04T14:59:47.125Z,29.60
2022-09-04T15:02:46.979Z,29.50
2022-09-04T15:05:25.524Z,29.50
2022-09-04T15:08:07.441Z,29.60
2022-09-04T15:10:52.201Z,29.50
2022-09-04T15:13:33.573Z,29.60
2022-09-04T15:16:20.597Z,29.60
2022-09-04T15:19:18.792Z,29.70
2022-09-04T15:22:05.497Z,29.70
2022-09-04T15:24:38.623Z,29.70
2022-09-04T15:27:28.323Z,29.60
2022-09-04T15:29:58.947Z,29.50
2022-09-04T15:32:27.642Z,29.50
2022-09-04T15:35:14.965Z,29.40
2022-09-04T15:37:48.395Z,29.50
2022-09-04T15:40:35.688Z,29.50
2022-09-04T15:43:17.523Z,29.50
2022-09-04T15:46:13.045Z,29.50
2022-09-04T15:49:07.927Z,29.60
2022-09-04T15:51:46.451Z,29.60
2022-09-04T15:54:26.971Z,29.60
2022-09-04T15:56:53.706Z,29.50
2022-09-04T15:59:24.348Z,29.50
2022-09-04T16:02:20.305Z,29.50
2022-09-04T16:05:03.300Z,29.40
2022-09-04T16:07:41.761Z,29.30
2022-09-04T16:10:10.871Z,29.20
2022-09-04T16:12:57.063Z,29.20
2022-09-04T16:15:27.018Z,29.10
2022-09-04T16:17:55.480Z,29.10
2022-09-04T16:20:36.760Z,29.10
2022-09-04T16:23:10.227Z,29.10
2022-09-04T16:25:50.260Z,29.00
2022-09-04T16:28:25.366Z,29.00
2022-09-04T16:31:02.843Z,28.90
2022-09-04T16:33:44.879Z,28.80
2022-09-04T16:36:24.943Z,28.70
2022-09-04T16:39:14.159Z,28.60
2022-09-04T16:41:52.426Z,28.60
2022-09-04T16:44:25.624Z,28.50
2022-09-04T16:47:14.955Z,28.50
2022-09-04T16:50:11.775Z,28.50
2022-09-04T16:52:41.343Z,28.40
2022-09-04T16:55:31.191Z,28.40
2022-09-04T16:58:35.328Z,28.30
2022-09-04T17:01:22.115Z,28.20
2022-09-04T17:04:04.157Z,28.10
2022-09-04T17:07:03.700Z,28.00
2022-09-04T17:09:43.877Z,27.90
2022-09-04T17:12:48.215Z,27.90
2022-09-04T17:15:30.710Z,27.90
2022-09-04T17:18:00.125Z,27.90
2022-09-04T17:24:50.456Z,27.90
2022-09-04T17:28:56.266Z,27.80
2022-09-04T17:29:17.347Z,27.80
2022-09-04T17:29:36.288Z,27.70
2022-09-04T17:34:01.629Z,27.60
2022-09-04T17:40:34.778Z,27.60
2022-09-04T17:40:54.774Z,27.50
2022-09-04T17:42:04.694Z,27.40
2022-09-04T17:45:15.771Z,27.30
2022-09-04T17:47:43.298Z,27.20
2022-09-04T17:50:16.875Z,27.10
2022-09-04T17:53:01.833Z,27.00
2022-09-04T17:55:39.022Z,27.00
2022-09-04T17:58:31.400Z,26.90
2022-09-04T18:01:17.546Z,26.80
2022-09-04T18:04:09.878Z,26.70
2022-09-04T18:06:59.395Z,26.50
2022-09-04T18:09:39.991Z,26.40
2022-09-04T18:12:31.270Z,26.30
2022-09-04T18:15:32.224Z,26.20
2022-09-04T18:18:00.828Z,26.00
2022-09-04T18:20:40.084Z,25.90
2022-09-04T18:24:07.600Z,25.80
2022-09-04T18:26:40.814Z,25.70
2022-09-04T18:33:16.181Z,25.60
2022-09-04T18:37:19.825Z,25.50
2022-09-04T18:37:24.544Z,25.40
2022-09-04T18:38:35.600Z,25.30
2022-09-04T18:47:22.224Z,25.20
2022-09-04T18:50:22.646Z,25.10
2022-09-04T18:50:44.273Z,25.00
2022-09-04T18:53:43.639Z,24.90
2022-09-04T18:56:28.812Z,24.70
2022-09-04T18:59:26.125Z,24.70
2022-09-04T19:02:13.596Z,24.70
2022-09-04T19:04:47.078Z,24.60
2022-09-04T19:07:29.974Z,24.50
2022-09-04T19:10:21.530Z,24.50
2022-09-04T19:12:56.329Z,24.40
2022-09-04T19:15:36.163Z,24.40
2022-09-04T19:18:43.514Z,24.30
2022-09-04T19:21:14.235Z,24.20
2022-09-04T19:23:50.398Z,24.20
2022-09-04T19:26:39.667Z,24.10
2022-09-04T19:29:42.648Z,24.10
2022-09-04T19:32:41.672Z,24.00
2022-09-04T19:35:17.695Z,23.90
2022-09-04T19:44:10.173Z,23.90
2022-09-04T19:46:06.078Z,23.80
2022-09-04T19:46:11.593Z,23.70
2022-09-04T19:47:27.443Z,23.70
2022-09-04T19:53:20.030Z,23.60
2022-09-04T19:53:36.040Z,23.60
2022-09-04T19:56:08.373Z,23.60
2022-09-04T19:58:39.391Z,23.60
2022-09-04T20:01:16.481Z,23.50
2022-09-04T20:03:50.163Z,23.40
2022-09-04T20:06:21.550Z,23.40
2022-09-04T20:09:18.085Z,23.30
2022-09-04T20:12:01.479Z,23.30
2022-09-04T20:14:36.888Z,23.20
2022-09-04T20:17:33.201Z,23.20
2022-09-04T20:20:05.808Z,23.20
2022-09-04T20:22:45.330Z,23.20
2022-09-04T20:25:26.967Z,23.10
2022-09-04T20:28:00.237Z,23.10
2022-09-04T20:30:28.834Z,23.00
2022-09-04T20:33:06.084Z,23.00
2022-09-04T20:36:02.212Z,23.00
2022-09-04T20:38:57.844Z,23.00
2022-09-04T20:41:55.756Z,23.00
2022-09-04T20:44:52.474Z,23.00
2022-09-04T20:52:53.682Z,22.90
2022-09-04T20:52:55.451Z,22.80
2022-09-04T20:54:06.688Z,22.70
2022-09-04T20:58:33.699Z,22.60
2022-09-04T21:03:21.498Z,22.60
2022-09-04T21:03:28.932Z,22.60
2022-09-04T21:06:17.850Z,22.60
2022-09-04T21:08:53.516Z,22.50
2022-09-04T21:11:41.202Z,22.50
2022-09-04T21:14:45.810Z,22.50
2022-09-04T21:17:56.049Z,22.50
2022-09-04T21:21:22.112Z,22.40
2022-09-04T21:24:12.224Z,22.40
2022-09-04T21:27:10.046Z,22.40
2022-09-04T21:29:57.646Z,22.30
2022-09-04T21:33:27.175Z,22.30
2022-09-04T21:36:25.842Z,22.20
2022-09-04T21:39:02.946Z,22.20
2022-09-04T21:41:51.210Z,22.10
2022-09-04T21:44:38.943Z,22.10
2022-09-04T21:47:09.016Z,22.10
2022-09-04T21:50:22.981Z,22.10
2022-09-04T21:53:17.170Z,22.00
2022-09-04T22:00:16.103Z,22.00
2022-09-04T22:02:40.790Z,21.90
2022-09-04T22:02:59.239Z,21.90
2022-09-04T22:06:09.262Z,21.90
2022-09-04T22:13:31.083Z,21.80
2022-09-04T22:13:39.072Z,21.80
2022-09-04T22:14:37.176Z,21.80
2022-09-04T22:17:03.725Z,21.70
2022-09-04T22:19:48.953Z,21.70
2022-09-04T22:22:34.359Z,21.70
2022-09-04T22:25:18.884Z,21.60
2022-09-04T22:28:22.991Z,21.60
2022-09-04T22:31:29.477Z,21.50
2022-09-04T22:34:17.349Z,21.50
2022-09-04T22:37:06.078Z,21.40
2022-09-04T22:40:17.265Z,21.40
2022-09-04T22:42:58.559Z,21.40
2022-09-04T22:45:43.639Z,21.30
2022-09-04T22:48:10.206Z,21.30
2022-09-04T22:51:14.395Z,21.30
2022-09-04T22:54:00.180Z,21.30
2022-09-04T22:56:45.953Z,21.20
2022-09-04T22:59:56.819Z,21.20
2022-09-04T23:03:09.638Z,21.20
2022-09-04T23:05:39.834Z,21.10
2022-09-04T23:13:42.023Z,21.10
2022-09-04T23:13:58.886Z,21.10
2022-09-04T23:14:33.956Z,21.00
2022-09-04T23:17:33.772Z,21.00
2022-09-04T23:26:37.835Z,21.00
2022-09-04T23:26:38.100Z,21.00
2022-09-04T23:27:12.327Z,21.00
2022-09-04T23:29:53.941Z,20.90
2022-09-04T23:32:57.565Z,20.90
2022-09-04T23:35:37.525Z,20.90
2022-09-04T23:38:19.993Z,20.80
2022-09-04T23:41:05.136Z,20.80
2022-09-04T23:44:33.079Z,20.80
2022-09-04T23:47:47.108Z,20.70
2022-09-04T23:50:12.339Z,20.70
2022-09-04T23:52:59.754Z,20.70
2022-09-04T23:55:50.215Z,20.70
2022-09-04T23:58:51.493Z,20.60
